Time;durP1;ratioP1;P1;durP2;ratioP2;P2;SDS_P1;SDS_P2;PMS_P1;PMS_P2;Temp;Humidity;BMP_temperature;BMP_pressure;BME280_temperature;BME280_humidity;BME280_pressure;Samples;Min_cycle;Max_cycle;Signal;HPM_P1;HPM_P2
2022/11/23 00:00:36;;;;;;;42.30;18.20;;;2.50;99.90;;;;;;5053101;28;20170;-68
2022/11/23 00:03:01;;;;;;;43.83;17.37;;;2.50;99.90;;;;;;5053171;28;20736;-67
2022/11/23 00:05:29;;;;;;;36.47;16.07;;;2.50;99.90;;;;;;5052290;28;20425;-67
2022/11/23 00:07:54;;;;;;;47.17;20.03;;;2.50;99.90;;;;;;5052930;28;20505;-67
2022/11/23 00:10:20;;;;;;;39.10;17.57;;;2.50;99.90;;;;;;5053146;28;20468;-63
2022/11/23 00:12:46;;;;;;;33.07;16.27;;;2.50;99.90;;;;;;5053325;28;20178;-67
2022/11/23 00:15:14;;;;;;;37.67;16.73;;;2.50;99.90;;;;;;5052590;28;20179;-68
2022/11/23 00:17:40;;;;;;;34.80;17.10;;;2.50;99.90;;;;;;5053085;28;20428;-67
2022/11/23 00:20:07;;;;;;;35.07;18.03;;;2.60;99.90;;;;;;5053019;28;20406;-67
2022/11/23 00:22:34;;;;;;;38.90;17.90;;;2.60;99.90;;;;;;5053066;28;20417;-67
2022/11/23 00:24:59;;;;;;;34.47;18.50;;;2.60;99.90;;;;;;5051898;28;20903;-67
2022/11/23 00:27:25;;;;;;;37.97;18.13;;;2.70;99.90;;;;;;5052923;28;20463;-64
2022/11/23 00:29:51;;;;;;;34.80;17.20;;;2.70;99.90;;;;;;5053107;28;20222;-67
2022/11/23 00:32:16;;;;;;;33.30;16.87;;;2.70;99.90;;;;;;5053019;28;20168;-67
2022/11/23 00:34:42;;;;;;;34.50;16.77;;;2.80;99.90;;;;;;5052290;28;20171;-64
2022/11/23 00:37:08;;;;;;;34.63;19.37;;;2.80;99.90;;;;;;5052953;28;20265;-67
2022/11/23 00:39:34;;;;;;;39.33;19.03;;;2.70;99.90;;;;;;5052882;28;20198;-64
2022/11/23 00:41:59;;;;;;;38.20;18.17;;;2.70;99.90;;;;;;5052790;28;20189;-66
2022/11/23 00:44:25;;;;;;;34.13;17.77;;;2.80;99.90;;;;;;5051860;28;20638;-64
2022/11/23 00:46:51;;;;;;;41.07;20.87;;;2.80;99.90;;;;;;5052812;28;20195;-67
2022/11/23 00:49:16;;;;;;;33.33;16.10;;;2.80;99.90;;;;;;5052650;28;20214;-64
2022/11/23 00:51:42;;;;;;;32.30;17.77;;;2.80;99.90;;;;;;5052733;28;20625;-67
2022/11/23 00:54:08;;;;;;;34.90;17.07;;;2.80;99.90;;;;;;5052302;28;20178;-64
2022/11/23 00:56:35;;;;;;;27.30;15.50;;;2.70;99.90;;;;;;5052774;28;20207;-64
2022/11/23 00:59:02;;;;;;;40.23;17.47;;;2.70;99.90;;;;;;5051713;28;20436;-67
2022/11/23 01:01:32;;;;;;;33.30;17.20;;;2.70;99.90;;;;;;5052205;28;20405;-64
2022/11/23 01:04:00;;;;;;;33.10;18.30;;;2.70;99.90;;;;;;5051939;28;20440;-64
2022/11/23 01:06:28;;;;;;;42.07;17.73;;;2.70;99.90;;;;;;5052778;28;20425;-67
2022/11/23 01:08:59;;;;;;;36.77;18.27;;;2.70;99.90;;;;;;5052829;28;20441;-67
2022/11/23 01:11:28;;;;;;;43.47;18.50;;;2.70;99.90;;;;;;5053145;28;20447;-64
2022/11/23 01:13:54;;;;;;;30.00;17.93;;;2.80;99.90;;;;;;5054343;28;20460;-67
2022/11/23 01:16:25;;;;;;;36.70;18.07;;;2.80;99.90;;;;;;5055800;28;20417;-64
2022/11/23 01:18:55;;;;;;;44.30;17.60;;;2.80;99.90;;;;;;5055820;28;20405;-64
2022/11/23 01:21:21;;;;;;;36.87;17.63;;;2.80;99.90;;;;;;5056179;28;20413;-67
2022/11/23 01:23:47;;;;;;;38.37;18.20;;;2.80;99.90;;;;;;5055374;28;20424;-64
2022/11/23 01:26:13;;;;;;;36.07;18.50;;;2.80;99.90;;;;;;5056051;28;20425;-67
2022/11/23 01:28:39;;;;;;;38.93;18.47;;;2.70;99.90;;;;;;5055687;28;20170;-64
2022/11/23 01:31:14;;;;;;;42.13;19.07;;;2.70;99.90;;;;;;5055845;28;20247;-64
2022/11/23 01:33:41;;;;;;;33.67;16.27;;;2.80;99.90;;;;;;5054594;28;20405;-64
2022/11/23 01:36:11;;;;;;;33.53;16.40;;;2.80;99.90;;;;;;5055529;28;20432;-67
2022/11/23 01:38:36;;;;;;;32.23;17.07;;;2.80;99.90;;;;;;5055810;28;20492;-67
2022/11/23 01:41:04;;;;;;;37.80;17.80;;;2.90;99.90;;;;;;5055785;28;20497;-64
2022/11/23 01:43:30;;;;;;;41.37;17.87;;;2.80;99.90;;;;;;5055381;28;20162;-64
2022/11/23 01:45:58;;;;;;;37.70;16.80;;;2.90;99.90;;;;;;5055032;28;20444;-64
2022/11/23 01:48:31;;;;;;;34.77;16.20;;;2.90;99.90;;;;;;5055720;28;20156;-67
2022/11/23 01:50:59;;;;;;;34.27;16.80;;;2.90;99.90;;;;;;5055456;28;20398;-67
2022/11/23 01:53:27;;;;;;;35.13;19.07;;;2.90;99.90;;;;;;5054886;28;20405;-67
2022/11/23 01:55:56;;;;;;;36.37;18.10;;;2.90;99.90;;;;;;5054794;28;20465;-64
2022/11/23 01:58:24;;;;;;;38.57;18.93;;;2.90;99.90;;;;;;5055530;28;20395;-64
2022/11/23 02:00:50;;;;;;;30.83;16.67;;;2.90;99.90;;;;;;5055639;28;20397;-63
2022/11/23 02:03:17;;;;;;;34.17;17.83;;;2.90;99.90;;;;;;5055261;28;20398;-67
2022/11/23 02:05:46;;;;;;;31.50;16.90;;;2.90;99.90;;;;;;5054562;28;20755;-65
2022/11/23 02:08:14;;;;;;;33.03;18.50;;;2.90;99.90;;;;;;5055071;28;20417;-67
2022/11/23 02:10:39;;;;;;;33.40;16.50;;;2.90;99.90;;;;;;5055601;28;20477;-67
2022/11/23 02:13:08;;;;;;;47.20;17.00;;;2.90;99.90;;;;;;5054659;28;20814;-67
2022/11/23 02:15:35;;;;;;;34.53;16.03;;;2.90;99.90;;;;;;5054262;28;20193;-68
2022/11/23 02:18:04;;;;;;;32.97;15.23;;;3.00;99.90;;;;;;5055097;28;20744;-64
2022/11/23 02:20:30;;;;;;;39.90;19.77;;;3.00;99.90;;;;;;5055030;28;20770;-64
2022/11/23 02:23:15;;;;;;;25.43;15.30;;;3.00;99.90;;;;;;5054085;28;20424;-67
2022/11/23 02:25:44;;;;;;;34.53;17.07;;;3.10;99.90;;;;;;5054139;28;20390;-64
2022/11/23 02:28:17;;;;;;;32.47;16.50;;;3.10;99.90;;;;;;5054812;28;20451;-64
2022/11/23 02:30:46;;;;;;;36.33;19.80;;;3.10;99.90;;;;;;5054588;28;21020;-64
2022/11/23 02:33:11;;;;;;;36.53;18.23;;;3.10;99.90;;;;;;5053061;28;20413;-67
2022/11/23 02:35:54;;;;;;;36.93;16.80;;;3.10;99.90;;;;;;5053841;28;20398;-68
2022/11/23 02:38:21;;;;;;;39.67;16.70;;;3.10;99.90;;;;;;5054453;28;20171;-64
2022/11/23 02:40:47;;;;;;;44.77;19.93;;;3.10;99.90;;;;;;5054586;28;20397;-67
2022/11/23 02:43:13;;;;;;;40.03;17.70;;;3.10;99.90;;;;;;5054607;28;20404;-63
2022/11/23 02:45:53;;;;;;;33.20;17.17;;;3.20;99.90;;;;;;5053750;28;20532;-67
2022/11/23 02:48:19;;;;;;;29.30;17.27;;;3.10;99.90;;;;;;5054334;28;20452;-64
2022/11/23 02:50:45;;;;;;;29.23;16.20;;;3.10;99.90;;;;;;5053815;28;20504;-69
2022/11/23 02:53:11;;;;;;;28.17;16.87;;;3.20;99.90;;;;;;5054294;28;20401;-69
2022/11/23 02:55:38;;;;;;;32.23;14.60;;;3.10;99.90;;;;;;5053568;28;20397;-69
2022/11/23 02:58:04;;;;;;;39.10;16.30;;;3.20;99.90;;;;;;5052930;28;20924;-69
2022/11/23 03:00:31;;;;;;;26.67;15.23;;;3.20;99.90;;;;;;5053962;28;20420;-64
2022/11/23 03:02:59;;;;;;;31.53;16.67;;;3.20;99.90;;;;;;5054081;28;20422;-64
2022/11/23 03:05:25;;;;;;;29.40;17.03;;;3.20;99.90;;;;;;5053280;28;20421;-65
2022/11/23 03:07:50;;;;;;;29.70;16.70;;;3.20;99.90;;;;;;5054002;28;20409;-68
2022/11/23 03:10:17;;;;;;;28.60;14.70;;;3.20;99.90;;;;;;5053584;28;20480;-68
2022/11/23 03:12:43;;;;;;;28.83;16.07;;;3.20;99.90;;;;;;5054034;28;20167;-67
2022/11/23 03:15:09;;;;;;;30.53;16.03;;;3.20;99.90;;;;;;5053252;28;20395;-68
2022/11/23 03:17:35;;;;;;;29.10;15.77;;;3.20;99.90;;;;;;5053899;28;20210;-69
2022/11/23 03:20:01;;;;;;;30.40;16.30;;;3.20;99.90;;;;;;5054085;28;20417;-68
2022/11/23 03:22:26;;;;;;;34.27;17.50;;;3.30;99.90;;;;;;5053864;28;20425;-64
2022/11/23 03:24:52;;;;;;;34.07;16.57;;;3.20;99.90;;;;;;5052947;28;20420;-68
2022/11/23 03:27:18;;;;;;;28.23;14.07;;;3.20;99.90;;;;;;5053232;28;20659;-68
2022/11/23 03:29:44;;;;;;;33.23;18.90;;;3.20;99.90;;;;;;5053568;28;20267;-68
2022/11/23 03:32:09;;;;;;;39.17;17.17;;;3.20;99.90;;;;;;5053697;28;20160;-68
2022/11/23 03:34:35;;;;;;;30.27;16.17;;;3.20;99.90;;;;;;5052642;28;20198;-65
2022/11/23 03:37:01;;;;;;;35.57;16.93;;;3.20;99.90;;;;;;5053519;28;20476;-67
2022/11/23 03:39:27;;;;;;;28.10;16.00;;;3.20;99.90;;;;;;5053639;28;20213;-64
2022/11/23 03:41:52;;;;;;;35.27;16.87;;;3.20;99.90;;;;;;5053588;28;20167;-69
2022/11/23 03:44:18;;;;;;;29.00;15.20;;;3.20;99.90;;;;;;5052348;28;20216;-65
2022/11/23 03:46:44;;;;;;;33.50;16.97;;;3.20;99.90;;;;;;5053413;28;20265;-69
2022/11/23 03:49:09;;;;;;;31.27;15.80;;;3.30;99.90;;;;;;5053262;28;20525;-64
2022/11/23 03:51:35;;;;;;;33.20;17.53;;;3.30;99.90;;;;;;5053391;28;20170;-64
2022/11/23 03:54:01;;;;;;;33.63;18.83;;;3.30;99.90;;;;;;5052820;28;20570;-67
2022/11/23 03:56:27;;;;;;;34.60;17.67;;;3.30;99.90;;;;;;5053281;28;20695;-64
2022/11/23 03:58:53;;;;;;;30.17;16.53;;;3.20;99.90;;;;;;5053108;28;20174;-65
2022/11/23 04:01:19;;;;;;;35.80;17.13;;;3.20;99.90;;;;;;5053185;28;20736;-65
2022/11/23 04:03:45;;;;;;;29.73;16.87;;;3.20;99.90;;;;;;5052156;28;20221;-69
2022/11/23 04:06:10;;;;;;;28.10;17.50;;;3.20;99.90;;;;;;5053113;28;20829;-68
2022/11/23 04:08:36;;;;;;;30.60;16.10;;;3.20;99.90;;;;;;5053306;28;20249;-69
2022/11/23 04:11:02;;;;;;;29.57;14.70;;;3.20;99.90;;;;;;5053098;28;20174;-64
2022/11/23 04:13:28;;;;;;;33.90;15.90;;;3.20;99.90;;;;;;5053088;28;20393;-68
2022/11/23 04:15:53;;;;;;;39.53;16.77;;;3.20;99.90;;;;;;5052643;28;20197;-64
2022/11/23 04:18:19;;;;;;;27.23;15.57;;;3.20;99.90;;;;;;5053135;28;20170;-68
2022/11/23 04:20:45;;;;;;;29.30;14.73;;;3.20;99.90;;;;;;5051563;28;20570;-65
2022/11/23 04:23:10;;;;;;;34.30;17.97;;;3.30;99.90;;;;;;5052967;28;20171;-68
2022/11/23 04:25:36;;;;;;;31.40;16.17;;;3.30;99.90;;;;;;5052438;28;20559;-65
2022/11/23 04:28:02;;;;;;;34.67;17.50;;;3.30;99.90;;;;;;5053082;28;20225;-64
2022/11/23 04:30:27;;;;;;;29.63;16.00;;;3.30;99.90;;;;;;5053175;28;20564;-65
2022/11/23 04:32:53;;;;;;;27.50;14.93;;;3.30;99.90;;;;;;5053139;28;20205;-68
2022/11/23 04:35:20;;;;;;;29.20;16.83;;;3.30;99.90;;;;;;5052177;28;20721;-65
2022/11/23 04:37:46;;;;;;;32.30;16.90;;;3.30;99.90;;;;;;5052508;28;20187;-65
2022/11/23 04:40:15;;;;;;;29.90;16.73;;;3.30;99.90;;;;;;5052954;28;20416;-68
2022/11/23 04:42:41;;;;;;;28.30;15.27;;;3.30;99.90;;;;;;5052868;28;20612;-64
2022/11/23 04:45:07;;;;;;;23.30;16.20;;;3.40;99.90;;;;;;5052227;28;20408;-65
2022/11/23 04:47:32;;;;;;;36.83;17.90;;;3.30;99.90;;;;;;5054960;28;20705;-65
2022/11/23 04:49:58;;;;;;;34.00;16.93;;;3.40;99.90;;;;;;5056805;28;20452;-65
2022/11/23 04:52:24;;;;;;;33.97;15.93;;;3.40;99.90;;;;;;5055342;28;20179;-68
2022/11/23 04:54:49;;;;;;;31.17;16.97;;;3.40;99.90;;;;;;5055913;28;20178;-65
2022/11/23 04:57:15;;;;;;;30.80;15.37;;;3.40;99.90;;;;;;5055947;28;20218;-68
2022/11/23 04:59:41;;;;;;;32.60;16.93;;;3.50;99.90;;;;;;5056387;28;20174;-68
2022/11/23 05:02:07;;;;;;;26.87;16.70;;;3.50;99.90;;;;;;5056590;28;20178;-65
2022/11/23 05:04:33;;;;;;;29.73;15.67;;;3.50;99.90;;;;;;5055695;28;20194;-68
2022/11/23 05:06:59;;;;;;;31.50;17.20;;;3.60;99.90;;;;;;5056256;28;20195;-65
2022/11/23 05:09:25;;;;;;;31.40;16.80;;;3.60;99.90;;;;;;5056128;28;20457;-65
2022/11/23 05:11:50;;;;;;;29.63;18.23;;;3.60;99.90;;;;;;5056317;28;20406;-69
2022/11/23 05:14:16;;;;;;;24.83;15.10;;;3.70;99.90;;;;;;5055369;28;20559;-65
2022/11/23 05:16:42;;;;;;;32.37;17.17;;;3.70;99.90;;;;;;5056120;28;20274;-69
2022/11/23 05:19:07;;;;;;;25.60;17.07;;;3.70;99.90;;;;;;5056289;28;20248;-65
2022/11/23 05:21:33;;;;;;;33.60;16.70;;;3.70;99.90;;;;;;5054883;28;20187;-65
2022/11/23 05:23:59;;;;;;;33.17;17.20;;;3.70;99.90;;;;;;5055494;28;20651;-69
2022/11/23 05:26:25;;;;;;;35.60;16.80;;;3.70;99.90;;;;;;5055993;28;20194;-65
2022/11/23 05:28:50;;;;;;;24.60;15.50;;;3.80;99.90;;;;;;5055862;28;20171;-70
2022/11/23 05:31:16;;;;;;;36.13;16.40;;;3.70;99.90;;;;;;5055143;28;20193;-65
2022/11/23 05:33:42;;;;;;;30.43;16.23;;;3.80;99.90;;;;;;5054736;28;20167;-65
2022/11/23 05:36:08;;;;;;;31.50;17.00;;;3.80;99.90;;;;;;5055809;28;20191;-70
2022/11/23 05:38:34;;;;;;;25.87;14.90;;;3.80;99.90;;;;;;5055958;28;20648;-69
2022/11/23 05:41:00;;;;;;;45.53;17.53;;;3.80;99.90;;;;;;5055765;28;20406;-65
2022/11/23 05:43:25;;;;;;;33.83;15.53;;;3.80;99.90;;;;;;5055514;28;20417;-68
2022/11/23 05:45:51;;;;;;;30.67;16.10;;;3.80;99.90;;;;;;5054932;28;20223;-69
2022/11/23 05:48:17;;;;;;;30.17;15.80;;;3.80;99.90;;;;;;5055888;28;20211;-70
2022/11/23 05:50:43;;;;;;;31.70;16.80;;;3.90;99.90;;;;;;5055173;28;20249;-65
2022/11/23 05:53:09;;;;;;;28.30;18.20;;;3.90;99.90;;;;;;5055606;28;20408;-69
2022/11/23 05:55:34;;;;;;;36.70;16.80;;;3.90;99.90;;;;;;5054676;28;20163;-69
2022/11/23 05:58:00;;;;;;;30.60;18.40;;;3.90;99.90;;;;;;5053662;28;20526;-66
2022/11/23 06:00:26;;;;;;;31.03;16.20;;;4.00;99.90;;;;;;5055515;28;20178;-66
2022/11/23 06:02:57;;;;;;;32.10;16.37;;;4.00;99.90;;;;;;5054980;28;20416;-70
2022/11/23 06:05:22;;;;;;;30.50;17.90;;;4.00;99.90;;;;;;5054529;28;20912;-65
2022/11/23 06:07:52;;;;;;;29.67;17.43;;;4.00;99.90;;;;;;5054996;28;20433;-69
2022/11/23 06:10:17;;;;;;;29.50;15.43;;;4.00;99.90;;;;;;5054607;28;20628;-65
2022/11/23 06:12:44;;;;;;;28.87;15.43;;;3.90;99.90;;;;;;5055266;28;20498;-69
2022/11/23 06:15:11;;;;;;;34.00;17.43;;;4.00;99.90;;;;;;5054515;28;20399;-69
2022/11/23 06:17:36;;;;;;;28.63;16.80;;;4.00;99.90;;;;;;5055102;28;20442;-69
2022/11/23 06:20:04;;;;;;;34.47;17.90;;;4.00;99.90;;;;;;5055076;28;20410;-66
2022/11/23 06:22:30;;;;;;;28.97;16.90;;;4.00;99.90;;;;;;5054951;28;20811;-70
2022/11/23 06:24:55;;;;;;;32.00;18.20;;;4.00;99.90;;;;;;5054385;28;20506;-70
2022/11/23 06:27:21;;;;;;;23.33;13.77;;;4.10;99.90;;;;;;5054694;28;20595;-66
2022/11/23 06:29:47;;;;;;;27.77;17.60;;;4.10;99.90;;;;;;5054493;28;20221;-70
2022/11/23 06:32:13;;;;;;;34.50;17.47;;;4.10;99.90;;;;;;5054761;28;20528;-66
2022/11/23 06:34:38;;;;;;;28.67;17.90;;;4.10;99.90;;;;;;5054166;28;20160;-66
2022/11/23 06:37:04;;;;;;;35.70;18.63;;;4.10;99.90;;;;;;5053389;28;20786;-71
2022/11/23 06:39:30;;;;;;;29.03;14.23;;;4.10;99.90;;;;;;5054764;28;20197;-71
2022/11/23 06:41:55;;;;;;;27.70;16.83;;;4.10;99.90;;;;;;5054679;28;20627;-67
2022/11/23 06:44:21;;;;;;;22.90;15.73;;;4.10;99.90;;;;;;5053748;28;20709;-66
2022/11/23 06:46:47;;;;;;;24.20;14.50;;;4.10;99.90;;;;;;5054381;28;20236;-71
2022/11/23 06:49:13;;;;;;;24.20;14.97;;;4.10;99.90;;;;;;5052635;28;20244;-66
2022/11/23 06:51:38;;;;;;;28.50;16.50;;;4.20;99.90;;;;;;5054417;28;20164;-71
2022/11/23 06:54:04;;;;;;;24.30;16.13;;;4.20;99.90;;;;;;5053781;28;20176;-65
2022/11/23 06:56:33;;;;;;;25.37;14.03;;;4.20;99.90;;;;;;5054136;28;20694;-66
2022/11/23 06:58:59;;;;;;;22.37;14.40;;;4.20;99.90;;;;;;5052915;28;20186;-70
2022/11/23 07:01:24;;;;;;;30.87;15.43;;;4.20;99.90;;;;;;5054195;28;20405;-70
2022/11/23 07:03:50;;;;;;;28.90;15.97;;;4.20;99.90;;;;;;5053475;28;20470;-66
2022/11/23 07:06:16;;;;;;;23.27;13.93;;;4.20;99.90;;;;;;5053930;28;20276;-71
2022/11/23 07:08:42;;;;;;;26.23;14.40;;;4.20;99.90;;;;;;5053264;28;20197;-66
2022/11/23 07:11:10;;;;;;;28.73;15.47;;;4.20;99.90;;;;;;5053537;28;20579;-70
2022/11/23 07:13:37;;;;;;;29.20;15.67;;;4.30;99.90;;;;;;5053626;28;20401;-70
2022/11/23 07:16:03;;;;;;;25.70;14.63;;;4.30;99.90;;;;;;5052892;28;20462;-72
2022/11/23 07:18:29;;;;;;;27.63;14.90;;;4.30;99.90;;;;;;5053967;28;20403;-71
2022/11/23 07:20:58;;;;;;;25.07;14.17;;;4.30;99.90;;;;;;5053968;28;20423;-66
2022/11/23 07:23:24;;;;;;;19.90;13.80;;;4.30;99.90;;;;;;5052464;28;20669;-71
2022/11/23 07:25:49;;;;;;;26.20;14.90;;;4.40;99.90;;;;;;5053057;28;20428;-71
2022/11/23 07:28:16;;;;;;;24.43;14.73;;;4.40;99.90;;;;;;5053639;28;20404;-66
2022/11/23 07:30:42;;;;;;;22.93;13.33;;;4.50;99.90;;;;;;5053594;28;20198;-66
2022/11/23 07:33:10;;;;;;;29.30;14.73;;;4.40;99.90;;;;;;5053833;28;20498;-70
2022/11/23 07:35:37;;;;;;;34.67;16.57;;;4.50;99.90;;;;;;5052742;28;20170;-71
2022/11/23 07:38:03;;;;;;;24.23;15.40;;;4.50;99.90;;;;;;5053641;28;20397;-71
2022/11/23 07:40:29;;;;;;;20.80;12.80;;;4.40;99.90;;;;;;5053563;28;20815;-67
2022/11/23 07:43:02;;;;;;;19.67;13.30;;;4.50;99.90;;;;;;5053458;28;20443;-70
2022/11/23 07:45:28;;;;;;;20.50;12.73;;;4.40;99.90;;;;;;5052377;28;20177;-71
2022/11/23 07:48:03;;;;;;;23.13;12.27;;;4.50;99.90;;;;;;5053336;28;20755;-67
2022/11/23 07:50:29;;;;;;;25.53;13.50;;;4.50;99.90;;;;;;5053343;28;21012;-70
2022/11/23 07:52:55;;;;;;;20.00;13.40;;;4.50;99.90;;;;;;5053358;28;20399;-71
2022/11/23 07:55:22;;;;;;;16.30;11.40;;;4.50;99.90;;;;;;5052729;28;20394;-67
2022/11/23 07:57:52;;;;;;;18.43;12.10;;;4.50;99.90;;;;;;5053225;28;20910;-70
2022/11/23 08:00:19;;;;;;;20.80;13.27;;;4.50;99.90;;;;;;5053191;28;20870;-67
2022/11/23 08:02:45;;;;;;;26.43;14.87;;;4.50;99.90;;;;;;5053154;28;20388;-71
2022/11/23 08:05:10;;;;;;;29.50;15.10;;;4.50;99.90;;;;;;5052118;28;20934;-71
2022/11/23 08:07:36;;;;;;;25.97;12.10;;;4.50;99.90;;;;;;5053135;28;20431;-72
2022/11/23 08:10:03;;;;;;;20.00;13.20;;;4.50;99.90;;;;;;5053218;28;20209;-72
2022/11/23 08:12:29;;;;;;;35.17;14.70;;;4.50;99.90;;;;;;5051871;28;20556;-67
2022/11/23 08:14:54;;;;;;;23.33;14.57;;;4.50;99.90;;;;;;5052483;28;20405;-71
2022/11/23 08:17:20;;;;;;;24.20;13.87;;;4.50;99.90;;;;;;5053032;28;20183;-72
2022/11/23 08:19:46;;;;;;;22.53;12.43;;;4.50;99.90;;;;;;5053057;28;20171;-71
2022/11/23 08:22:11;;;;;;;26.60;14.40;;;4.60;99.90;;;;;;5056557;28;20632;-71
2022/11/23 08:24:37;;;;;;;19.53;12.80;;;4.60;99.90;;;;;;5056875;28;20178;-71
2022/11/23 08:27:03;;;;;;;21.90;12.27;;;4.60;99.90;;;;;;5056914;28;20215;-68
2022/11/23 08:29:29;;;;;;;29.67;14.50;;;4.70;99.90;;;;;;5057038;28;20246;-68
2022/11/23 08:31:55;;;;;;;17.50;11.20;;;4.70;99.90;;;;;;5057005;28;20170;-71
2022/11/23 08:34:21;;;;;;;21.60;13.80;;;4.70;99.90;;;;;;5056376;28;20393;-67
2022/11/23 08:36:49;;;;;;;16.80;11.70;;;4.80;99.90;;;;;;5056394;28;20185;-68
2022/11/23 08:39:16;;;;;;;25.50;14.93;;;4.80;99.90;;;;;;5056828;28;20304;-71
2022/11/23 08:41:42;;;;;;;28.77;13.40;;;4.80;99.90;;;;;;5057038;28;20924;-71
2022/11/23 08:44:09;;;;;;;16.77;12.03;;;4.80;99.90;;;;;;5056062;28;20405;-68
2022/11/23 08:46:35;;;;;;;19.70;11.70;;;4.90;1.00;;;;;;5056678;28;20413;-68
2022/11/23 08:49:02;;;;;;;19.13;11.90;;;4.90;1.00;;;;;;5056658;28;20451;-72
2022/11/23 08:51:28;;;;;;;18.00;11.60;;;4.90;1.00;;;;;;5056638;28;20400;-67
2022/11/23 08:53:54;;;;;;;19.93;12.43;;;5.00;1.00;;;;;;5056302;28;20486;-67
2022/11/23 08:56:19;;;;;;;19.17;10.70;;;5.00;1.00;;;;;;5056105;28;20417;-73
2022/11/23 08:58:45;;;;;;;17.10;12.07;;;5.00;1.00;;;;;;5056580;28;20245;-73
2022/11/23 09:01:13;;;;;;;20.93;12.53;;;5.10;1.00;;;;;;5056520;28;20166;-73
2022/11/23 09:03:40;;;;;;;23.50;12.67;;;5.10;1.00;;;;;;5055610;28;20428;-68
2022/11/23 09:06:06;;;;;;;19.53;11.20;;;5.10;1.00;;;;;;5056440;28;20968;-68
2022/11/23 09:08:31;;;;;;;18.23;11.00;;;5.20;1.00;;;;;;5056338;28;20955;-68
2022/11/23 09:11:06;;;;;;;16.83;10.97;;;5.20;1.00;;;;;;5056302;28;20562;-68
2022/11/23 09:13:34;;;;;;;18.30;11.03;;;5.20;1.00;;;;;;5055929;28;20670;-68
2022/11/23 09:16:01;;;;;;;16.83;10.20;;;5.20;1.00;;;;;;5055418;28;20481;-71
2022/11/23 09:18:32;;;;;;;16.97;11.43;;;5.20;1.00;;;;;;5056183;28;20416;-68
2022/11/23 09:21:00;;;;;;;17.77;11.70;;;5.30;1.00;;;;;;5055900;28;20454;-73
2022/11/23 09:23:26;;;;;;;15.10;10.57;;;5.30;1.00;;;;;;5055959;28;20397;-69
2022/11/23 09:25:52;;;;;;;12.93;9.40;;;5.40;1.00;;;;;;5055478;28;20421;-69
2022/11/23 09:28:23;;;;;;;20.93;11.07;;;5.40;1.00;;;;;;5056185;28;20163;-68
2022/11/23 09:30:49;;;;;;;14.97;9.87;;;5.50;1.00;;;;;;5056063;28;20663;-71
2022/11/23 09:33:15;;;;;;;19.37;10.73;;;5.50;1.00;;;;;;5055244;28;20410;-71
2022/11/23 09:35:41;;;;;;;18.80;10.77;;;5.60;1.00;;;;;;5054796;28;20405;-72
2022/11/23 09:38:07;;;;;;;18.20;11.40;;;5.60;1.00;;;;;;5055975;28;20170;-73
2022/11/23 09:40:36;;;;;;;18.97;11.13;;;5.60;1.00;;;;;;5055786;28;20698;-70
2022/11/23 09:43:16;;;;;;;14.57;9.30;;;5.70;1.00;;;;;;5054503;28;20416;-72
2022/11/23 09:45:50;;;;;;;17.17;10.67;;;5.80;1.00;;;;;;5054975;28;20453;-72
2022/11/23 09:48:28;;;;;;;18.43;11.13;;;5.80;1.00;;;;;;5055813;28;20408;-71
2022/11/23 09:51:06;;;;;;;15.03;9.97;;;5.80;1.00;;;;;;5055326;28;20449;-71
2022/11/23 09:53:35;;;;;;;17.80;11.67;;;5.90;1.00;;;;;;5054858;28;20397;-72
2022/11/23 09:56:01;;;;;;;14.63;10.20;;;5.90;1.00;;;;;;5054884;28;20467;-70
2022/11/23 09:58:32;;;;;;;12.90;9.67;;;6.00;1.00;;;;;;5055532;28;20906;-71
2022/11/23 10:01:12;;;;;;;11.90;10.70;;;6.00;1.00;;;;;;5055459;28;20409;-73
2022/11/23 10:03:41;;;;;;;16.00;10.77;;;6.00;1.00;;;;;;5054215;28;20480;-73
2022/11/23 10:06:20;;;;;;;13.83;9.30;;;6.10;1.00;;;;;;5055123;28;20426;-72
2022/11/23 10:08:55;;;;;;;14.50;10.60;;;6.10;1.00;;;;;;5054892;28;20436;-73
2022/11/23 10:11:32;;;;;;;15.20;10.20;;;6.10;1.00;;;;;;5055084;28;20404;-70
2022/11/23 10:14:32;;;;;;;13.00;10.70;;;6.10;1.00;;;;;;5052800;28;20770;-71
2022/11/23 10:17:16;;;;;;;11.47;9.67;;;6.10;1.00;;;;;;5053920;28;20426;-69
2022/11/23 10:20:06;;;;;;;16.93;10.87;;;6.10;1.00;;;;;;5055183;28;20896;-69
2022/11/23 10:22:56;;;;;;;20.17;10.67;;;6.20;1.00;;;;;;5055124;28;20406;-74
2022/11/23 10:25:23;;;;;;;16.73;10.47;;;6.20;1.00;;;;;;5052865;28;20926;-73
2022/11/23 10:27:53;;;;;;;18.63;10.87;;;6.30;1.00;;;;;;5054468;28;20417;-73
2022/11/23 10:30:19;;;;;;;15.73;9.87;;;6.30;1.00;;;;;;5054619;28;20449;-74
2022/11/23 10:32:57;;;;;;;19.10;10.67;;;6.30;1.00;;;;;;5054874;28;20461;-70
2022/11/23 10:35:29;;;;;;;18.20;10.60;;;6.30;1.00;;;;;;5053650;28;20451;-69
2022/11/23 10:38:21;;;;;;;14.33;10.00;;;6.30;1.00;;;;;;5054792;28;20427;-70
2022/11/23 10:41:10;;;;;;;17.50;8.93;;;6.40;1.00;;;;;;5052839;28;20425;-70
2022/11/23 10:43:47;;;;;;;17.40;12.20;;;6.40;1.00;;;;;;5053759;28;20386;-73
2022/11/23 10:46:26;;;;;;;13.47;10.30;;;6.40;1.00;;;;;;5053472;28;20421;-69
2022/11/23 10:48:53;;;;;;;13.37;10.40;;;6.40;1.00;;;;;;5054424;28;20389;-69
2022/11/23 10:51:31;;;;;;;14.37;9.07;;;6.40;1.00;;;;;;5054462;28;20883;-70
2022/11/23 10:54:20;;;;;;;17.00;10.27;;;6.40;1.00;;;;;;5053447;28;20433;-74
2022/11/23 10:56:48;;;;;;;12.30;9.40;;;6.40;1.00;;;;;;5053281;28;20426;-75
2022/11/23 10:59:37;;;;;;;15.87;10.40;;;6.40;1.00;;;;;;5054255;28;20467;-68
2022/11/23 11:02:20;;;;;;;14.93;10.13;;;6.40;1.00;;;;;;5053811;28;20405;-69
2022/11/23 11:04:48;;;;;;;20.17;10.50;;;6.50;1.00;;;;;;5053267;28;20813;-75
2022/11/23 11:07:30;;;;;;;15.03;10.30;;;6.60;1.00;;;;;;5090943;28;20624;-70
2022/11/23 11:09:58;;;;;;;15.97;10.60;;;6.70;1.00;;;;;;5090879;28;20395;-75
2022/11/23 11:12:26;;;;;;;11.70;9.23;;;6.70;1.00;;;;;;5090660;28;20402;-71
2022/11/23 11:15:02;;;;;;;18.40;10.53;;;6.70;1.00;;;;;;5089947;28;20387;-76
2022/11/23 11:17:32;;;;;;;15.20;9.83;;;6.60;99.90;;;;;;5090793;28;20824;-76
2022/11/23 11:19:59;;;;;;;14.90;9.67;;;6.60;99.90;;;;;;5090340;28;20741;-75
2022/11/23 11:22:33;;;;;;;13.10;8.90;;;6.60;99.90;;;;;;5090572;28;20399;-72
2022/11/23 11:25:01;;;;;;;12.57;9.63;;;6.70;1.00;;;;;;5089694;28;20394;-76
2022/11/23 11:27:29;;;;;;;13.57;9.50;;;6.80;1.00;;;;;;5090638;28;20456;-76
2022/11/23 11:30:00;;;;;;;12.67;9.50;;;6.80;1.00;;;;;;5090675;28;20942;-76
2022/11/23 11:32:32;;;;;;;11.40;9.67;;;6.90;99.90;;;;;;5090546;28;20407;-75
2022/11/23 11:35:40;;;;;;;16.83;10.27;;;6.80;99.90;;;;;;5088516;28;20403;-71
2022/11/23 11:38:31;;;;;;;17.03;9.77;;;6.80;99.90;;;;;;5080969;28;20465;-74
2022/11/23 11:41:01;;;;;;;11.37;9.07;;;6.80;99.90;;;;;;5085588;28;20420;-76
2022/11/23 11:43:38;;;;;;;14.60;9.60;;;6.90;99.90;;;;;;5088859;28;20908;-72
2022/11/23 11:46:20;;;;;;;11.67;8.93;;;6.90;99.90;;;;;;5090209;28;20537;-72
2022/11/23 11:49:06;;;;;;;13.30;10.50;;;6.90;99.90;;;;;;5090079;28;20483;-73
2022/11/23 11:51:53;;;;;;;20.43;10.80;;;6.90;99.90;;;;;;5090196;28;20741;-76
2022/11/23 11:54:39;;;;;;;20.50;10.63;;;7.00;99.90;;;;;;5089553;28;20392;-72
2022/11/23 11:57:19;;;;;;;16.93;10.13;;;7.00;99.90;;;;;;5089420;28;20464;-76
2022/11/23 11:59:49;;;;;;;14.97;9.40;;;7.00;99.90;;;;;;5090086;28;20400;-77
2022/11/23 12:02:27;;;;;;;13.23;9.50;;;7.00;99.90;;;;;;5089933;28;20910;-73
2022/11/23 12:05:29;;;;;;;11.73;9.37;;;7.00;99.90;;;;;;5089268;28;20404;-74
2022/11/23 12:08:34;;;;;;;13.13;9.00;;;7.00;99.90;;;;;;5089970;28;20430;-74
2022/11/23 12:11:01;;;;;;;10.93;8.23;;;7.10;99.90;;;;;;5088352;28;20400;-76
2022/11/23 12:13:36;;;;;;;14.47;11.30;;;7.10;99.90;;;;;;5089849;28;20517;-76
2022/11/23 12:16:29;;;;;;;12.13;8.53;;;7.10;99.90;;;;;;5087893;28;20426;-74
2022/11/23 12:19:12;;;;;;;14.37;9.73;;;7.00;99.90;;;;;;5074193;28;20411;-75
2022/11/23 12:22:09;;;;;;;14.10;9.90;;;7.10;99.90;;;;;;5076364;28;20407;-74
2022/11/23 12:24:59;;;;;;;12.37;9.20;;;7.10;99.90;;;;;;5074038;28;20415;-74
2022/11/23 12:27:46;;;;;;;12.80;9.30;;;7.20;99.90;;;;;;5076000;28;20467;-74
2022/11/23 12:30:29;;;;;;;13.03;9.47;;;7.20;99.90;;;;;;5074749;28;20442;-75
2022/11/23 12:33:35;;;;;;;13.47;8.87;;;7.20;99.90;;;;;;5075893;28;20430;-76
2022/11/23 12:36:28;;;;;;;15.73;9.00;;;7.50;99.90;;;;;;5073505;28;20432;-74
2022/11/23 12:39:14;;;;;;;12.17;7.90;;;7.60;99.90;;;;;;5075888;28;20419;-76
2022/11/23 12:42:24;;;;;;;12.73;9.23;;;7.50;99.90;;;;;;5075772;28;20401;-74
2022/11/23 12:45:15;;;;;;;16.40;9.23;;;7.40;99.90;;;;;;5055623;28;20398;-76
2022/11/23 12:48:29;;;;;;;20.43;9.17;;;7.20;99.90;;;;;;5075620;28;20438;-76
2022/11/23 12:51:04;;;;;;;11.00;8.47;;;7.10;99.90;;;;;;5016549;28;20461;-76
2022/11/23 12:53:53;;;;;;;11.50;8.80;;;7.20;99.90;;;;;;5072594;28;20819;-76